createdAt,value
2022-08-20T00:00:36.174Z,19.64
2022-08-20T00:05:38.671Z,19.76
2022-08-20T00:10:43.898Z,19.74
2022-08-20T00:15:48.549Z,19.77
2022-08-20T00:20:51.985Z,19.76
2022-08-20T00:25:54.392Z,19.77
2022-08-20T00:30:55.283Z,19.72
2022-08-20T00:35:57.478Z,19.70
2022-08-20T00:41:00.241Z,19.73
2022-08-20T00:46:02.564Z,19.73
2022-08-20T00:51:06.718Z,19.69
2022-08-20T00:56:10.576Z,19.55
2022-08-20T01:01:11.618Z,19.40
2022-08-20T01:06:12.239Z,19.25
2022-08-20T01:11:16.565Z,19.05
2022-08-20T01:16:23.663Z,19.05
2022-08-20T01:21:28.158Z,19.00
2022-08-20T01:26:35.210Z,19.01
2022-08-20T01:31:38.816Z,19.02
2022-08-20T01:36:46.350Z,19.06
2022-08-20T01:42:04.309Z,19.15
2022-08-20T01:47:16.420Z,18.96
2022-08-20T01:52:25.873Z,18.95
2022-08-20T01:57:29.205Z,18.80
2022-08-20T02:02:29.824Z,18.75
2022-08-20T02:07:32.346Z,18.60
2022-08-20T02:12:35.182Z,18.48
2022-08-20T02:17:36.331Z,18.41
2022-08-20T02:22:40.539Z,18.40
2022-08-20T02:27:49.463Z,18.23
2022-08-20T02:32:50.258Z,18.11
2022-08-20T02:37:57.264Z,18.04
2022-08-20T02:43:00.284Z,17.93
2022-08-20T02:48:00.884Z,17.90
2022-08-20T02:53:01.482Z,17.83
2022-08-20T02:58:03.462Z,17.78
2022-08-20T03:03:04.239Z,17.70
2022-08-20T03:08:07.065Z,17.69
2022-08-20T03:13:12.305Z,17.78
2022-08-20T03:18:13.618Z,17.77
2022-08-20T03:23:17.198Z,17.75
2022-08-20T03:28:19.898Z,17.76
2022-08-20T03:33:21.299Z,17.76
2022-08-20T03:38:32.635Z,17.72
2022-08-20T03:43:35.561Z,17.66
2022-08-20T03:48:36.369Z,17.67
2022-08-20T03:53:37.058Z,17.71
2022-08-20T03:58:39.199Z,17.63
2022-08-20T04:03:39.813Z,17.64
2022-08-20T04:08:41.541Z,17.58
2022-08-20T04:13:43.534Z,17.63
2022-08-20T04:19:01.647Z,17.63
2022-08-20T04:24:04.452Z,17.62
2022-08-20T04:29:06.390Z,17.69
2022-08-20T04:34:08.017Z,17.71
2022-08-20T04:39:08.652Z,17.67
2022-08-20T04:44:11.759Z,17.70
2022-08-20T04:49:12.788Z,17.64
2022-08-20T04:54:14.414Z,17.66
2022-08-20T04:59:16.494Z,17.65
2022-08-20T05:04:17.097Z,17.64
2022-08-20T05:09:17.696Z,17.65
2022-08-20T05:14:19.872Z,17.64
2022-08-20T05:19:25.747Z,17.58
2022-08-20T05:24:27.276Z,17.53
2022-08-20T05:29:29.632Z,17.46
2022-08-20T05:34:30.250Z,17.42
2022-08-20T05:39:35.396Z,17.42
2022-08-20T05:44:39.338Z,17.35
2022-08-20T05:49:40.318Z,17.31
2022-08-20T05:54:40.928Z,17.35
2022-08-20T05:59:42.862Z,17.33
2022-08-20T06:04:43.473Z,17.41
2022-08-20T06:09:44.579Z,17.44
2022-08-20T06:14:47.406Z,17.50
2022-08-20T06:19:48.792Z,17.56
2022-08-20T06:24:50.416Z,17.65
2022-08-20T06:29:53.346Z,17.73
2022-08-20T06:34:54.225Z,17.79
2022-08-20T06:39:55.094Z,17.82
2022-08-20T06:44:59.568Z,17.76
2022-08-20T06:50:00.263Z,17.72
2022-08-20T06:55:01.244Z,17.53
2022-08-20T07:00:03.305Z,17.39
2022-08-20T07:05:05.210Z,17.33
2022-08-20T07:10:07.465Z,17.33
2022-08-20T07:15:12.163Z,17.31
2022-08-20T07:20:16.055Z,17.32
2022-08-20T07:25:19.681Z,17.31
2022-08-20T07:30:56.229Z,17.25
2022-08-20T07:35:58.878Z,17.35
2022-08-20T07:41:01.913Z,17.38
2022-08-20T07:46:07.502Z,17.38
2022-08-20T07:51:11.415Z,17.43
2022-08-20T07:56:14.563Z,17.50
2022-08-20T08:01:17.312Z,17.60
2022-08-20T08:06:29.554Z,17.71
2022-08-20T08:11:33.455Z,17.78
2022-08-20T08:16:35.585Z,17.93
2022-08-20T08:21:36.292Z,17.98
2022-08-20T08:26:36.986Z,18.00
2022-08-20T08:31:40.945Z,18.21
2022-08-20T08:36:44.291Z,18.30
2022-08-20T08:41:50.046Z,18.41
2022-08-20T08:46:56.527Z,18.42
2022-08-20T08:52:04.472Z,18.41
2022-08-20T08:57:08.197Z,18.42
2022-08-20T09:02:20.049Z,18.50
2022-08-20T09:07:20.953Z,18.51
2022-08-20T09:12:23.659Z,18.48
2022-08-20T09:17:26.326Z,18.40
2022-08-20T09:22:26.953Z,18.33
2022-08-20T09:27:27.531Z,18.28
2022-08-20T09:32:29.442Z,18.26
2022-08-20T09:37:36.685Z,18.24
2022-08-20T09:42:41.634Z,18.25
2022-08-20T09:47:55.251Z,18.19
2022-08-20T09:53:00.525Z,18.21
2022-08-20T09:58:02.486Z,18.26
2022-08-20T10:03:04.474Z,18.27
2022-08-20T10:08:06.595Z,18.30
2022-08-20T10:13:07.249Z,18.32
2022-08-20T10:18:12.282Z,18.24
2022-08-20T10:23:13.246Z,18.27
2022-08-20T10:28:13.857Z,18.30
2022-08-20T10:33:15.835Z,18.25
2022-08-20T10:38:16.440Z,18.31
2022-08-20T10:43:17.045Z,18.33
2022-08-20T10:48:21.555Z,18.33
2022-08-20T10:53:22.381Z,18.39
2022-08-20T10:58:23.124Z,18.41
2022-08-20T11:03:25.994Z,18.44
2022-08-20T11:08:34.261Z,18.45
2022-08-20T11:13:38.186Z,18.42
2022-08-20T11:18:43.758Z,18.40
2022-08-20T11:23:47.662Z,18.43
2022-08-20T11:28:48.566Z,18.43
2022-08-20T11:33:50.807Z,18.43
2022-08-20T11:38:51.819Z,18.42
2022-08-20T11:44:10.740Z,18.42
2022-08-20T11:49:15.496Z,18.47
2022-08-20T11:54:16.549Z,18.39
2022-08-20T11:59:18.337Z,18.40
2022-08-20T12:04:21.313Z,18.39
2022-08-20T12:09:26.368Z,18.38
2022-08-20T12:14:27.830Z,18.39
2022-08-20T12:19:30.189Z,18.33
2022-08-20T12:24:31.166Z,18.34
2022-08-20T12:29:34.509Z,18.36
2022-08-20T12:34:40.788Z,18.34
2022-08-20T12:39:44.306Z,18.32
2022-08-20T12:44:45.503Z,18.31
2022-08-20T12:49:51.430Z,18.29
2022-08-20T12:54:52.439Z,18.27
2022-08-20T12:59:53.452Z,18.26
2022-08-20T13:04:55.728Z,18.27
2022-08-20T13:09:59.594Z,18.27
2022-08-20T13:15:00.210Z,18.30
2022-08-20T13:20:02.274Z,18.32
2022-08-20T13:25:02.893Z,18.39
2022-08-20T13:30:03.517Z,18.40
2022-08-20T13:35:06.681Z,18.42
2022-08-20T13:40:09.172Z,18.50
2022-08-20T13:45:10.921Z,18.50
2022-08-20T13:50:16.590Z,18.38
2022-08-20T13:55:22.132Z,18.25
2022-08-20T14:00:31.095Z,18.29
2022-08-20T14:05:34.435Z,18.26
2022-08-20T14:10:35.486Z,18.25
2022-08-20T14:15:37.482Z,18.31
2022-08-20T14:20:39.729Z,18.12
2022-08-20T14:25:42.063Z,18.01
2022-08-20T14:30:42.877Z,17.45
2022-08-20T14:35:44.807Z,17.19
2022-08-20T14:40:45.531Z,17.08
2022-08-20T14:45:46.309Z,17.06
2022-08-20T14:50:48.452Z,16.86
2022-08-20T14:55:49.240Z,16.79
2022-08-20T15:00:50.396Z,16.85
2022-08-20T15:05:52.397Z,16.94
2022-08-20T15:10:55.070Z,16.88
2022-08-20T15:15:55.946Z,16.93
2022-08-20T15:20:58.220Z,16.89
2022-08-20T15:25:58.830Z,16.92
2022-08-20T15:30:59.461Z,16.94
2022-08-20T15:36:01.564Z,17.08
2022-08-20T15:41:02.919Z,17.12
2022-08-20T15:46:06.178Z,17.28
2022-08-20T15:51:24.141Z,17.37
2022-08-20T15:56:42.982Z,17.47
2022-08-20T16:01:54.269Z,17.52
2022-08-20T16:07:03.093Z,17.56
2022-08-20T16:12:10.212Z,17.64
2022-08-20T16:17:15.852Z,17.69
2022-08-20T16:22:20.180Z,17.80
2022-08-20T16:27:29.372Z,17.85
2022-08-20T16:32:37.673Z,17.85
2022-08-20T16:37:48.042Z,17.90
2022-08-20T16:42:52.200Z,17.87
2022-08-20T16:47:55.491Z,17.88
2022-08-20T16:52:57.624Z,17.84
2022-08-20T16:57:58.699Z,17.82
2022-08-20T17:03:01.131Z,17.72
2022-08-20T17:08:07.118Z,17.64
2022-08-20T17:13:23.856Z,17.55
2022-08-20T17:18:32.212Z,17.53
2022-08-20T17:23:54.643Z,17.52
2022-08-20T17:29:02.549Z,17.49
2022-08-20T17:34:03.517Z,17.45
2022-08-20T17:39:15.501Z,17.37
2022-08-20T17:44:23.669Z,17.31
2022-08-20T17:49:34.865Z,17.33
2022-08-20T17:54:40.216Z,17.31
2022-08-20T17:59:59.811Z,17.36
2022-08-20T18:05:10.245Z,17.43
2022-08-20T18:10:19.394Z,17.45
2022-08-20T18:15:24.798Z,17.43
2022-08-20T18:20:40.577Z,17.35
2022-08-20T18:25:46.725Z,17.39
2022-08-20T18:30:50.303Z,17.45
2022-08-20T18:35:51.201Z,17.49
2022-08-20T18:40:55.240Z,17.48
2022-08-20T18:45:56.105Z,17.45
2022-08-20T18:50:58.611Z,17.40
2022-08-20T18:56:06.942Z,17.47
2022-08-20T19:01:13.608Z,17.43
2022-08-20T19:06:26.028Z,17.45
2022-08-20T19:11:46.706Z,17.46
2022-08-20T19:16:51.721Z,17.47
2022-08-20T19:21:53.384Z,17.45
2022-08-20T19:26:58.823Z,17.48
2022-08-20T19:32:01.046Z,17.55
2022-08-20T19:37:28.177Z,17.56
2022-08-20T19:42:30.212Z,17.61
2022-08-20T19:47:34.630Z,17.50
2022-08-20T19:52:51.617Z,17.52
2022-08-20T19:57:57.021Z,17.52
2022-08-20T20:02:57.935Z,17.58
2022-08-20T20:07:59.784Z,17.54
2022-08-20T20:13:08.780Z,17.61
2022-08-20T20:18:10.558Z,17.55
2022-08-20T20:23:15.890Z,17.55
2022-08-20T20:28:22.637Z,17.51
2022-08-20T20:33:30.743Z,17.51
2022-08-20T20:38:31.454Z,17.51
2022-08-20T20:43:36.731Z,17.48
2022-08-20T20:48:45.982Z,17.45
2022-08-20T20:53:54.376Z,17.47
2022-08-20T20:58:57.617Z,17.43
2022-08-20T21:03:59.961Z,17.37
2022-08-20T21:09:01.388Z,17.35
2022-08-20T21:14:03.291Z,17.36
2022-08-20T21:19:06.682Z,17.34
2022-08-20T21:24:08.688Z,17.33
2022-08-20T21:29:14.198Z,17.32
2022-08-20T21:34:16.560Z,17.23
2022-08-20T21:39:17.716Z,17.25
2022-08-20T21:44:22.807Z,17.25
2022-08-20T21:49:27.194Z,17.28
2022-08-20T21:54:28.252Z,17.36
2022-08-20T21:59:30.519Z,17.41
2022-08-20T22:04:34.891Z,17.38
2022-08-20T22:09:38.292Z,17.42
2022-08-20T22:14:40.239Z,17.45
2022-08-20T22:19:40.958Z,17.43
2022-08-20T22:24:41.641Z,17.43
2022-08-20T22:29:43.577Z,17.41
2022-08-20T22:34:44.266Z,17.41
2022-08-20T22:39:44.912Z,17.45
2022-08-20T22:44:46.835Z,17.50
2022-08-20T22:49:47.508Z,17.49
2022-08-20T22:54:48.190Z,17.51
2022-08-20T22:59:53.156Z,17.55
2022-08-20T23:04:54.189Z,17.61
2022-08-20T23:09:54.827Z,17.64
2022-08-20T23:14:56.747Z,17.67
2022-08-20T23:19:57.354Z,17.68
2022-08-20T23:25:00.528Z,17.71
2022-08-20T23:30:02.731Z,17.71
2022-08-20T23:35:03.336Z,17.77
2022-08-20T23:40:05.493Z,17.76
2022-08-20T23:45:08.903Z,17.74
2022-08-20T23:50:11.842Z,17.71
2022-08-20T23:55:13.393Z,17.67
